D/T METAR WX W/SPE G/SPE TEMP DEWP FEEL
31/01/23 13:50 EGGD 311350Z AUTO 25013KT 9999 BKN031 09/05 Q1025 15.0mph 9°C 5°C 8.3°C
31/01/23 12:50 EGGD 311250Z AUTO 27012KT 9999 SCT031 09/04 Q1026 13.8mph 9°C 4°C 8.0°C
31/01/23 12:20 EGGD 311220Z 26018KT 9999 SCT035 08/05 Q1025 20.7mph 8°C 5°C 7.3°C
31/01/23 04:50 EGGD 310450Z AUTO 25012KT 9999 OVC010 06/04 Q1025 13.8mph 6°C 4°C 5.0°C
30/01/23 21:50 EGGD 302150Z AUTO 24007KT 180V260 9999 NCD 04/02 Q1028 8.1mph 4°C 2°C 2.4°C
30/01/23 12:50 EGGD 301250Z AUTO 27011KT 9999 NCD 08/03 Q1027 12.7mph 8°C 3°C 6.7°C
30/01/23 12:20 EGGD 301220Z AUTO 27012KT 9999 NCD 07/03 Q1027 13.8mph 7°C 3°C 5.7°C
30/01/23 10:50 EGGD 301050Z AUTO 25009KT 9999 NCD 06/03 Q1027 10.4mph 6°C 3°C 4.7°C
30/01/23 10:20 EGGD 301020Z AUTO 27010KT 9999 NCD 06/03 Q1027 11.5mph 6°C 3°C 4.7°C
30/01/23 07:50 EGGD 300750Z AUTO 26005KT 9999 OVC031 04/02 Q1026 5.8mph 4°C 2°C 2.4°C
09/01/23 06:20 EGGD 090620Z AUTO 26019KT 9999 BKN021/// BKN033/// //////TCU 06/04 Q0996 21.9mph 6°C 4°C 5.0°C
09/01/23 05:50 EGGD 090550Z AUTO 25017KT 9999 SCT022 BKN026 BKN035 06/04 Q0995 19.6mph 6°C 4°C 5.0°C
09/01/23 05:20 EGGD 090520Z AUTO 26014KT 9999 SCT020 BKN031 06/03 Q0995 16.1mph 6°C 3°C 4.7°C
09/01/23 04:50 EGGD 090450Z AUTO 26013KT 9999 SCT028 BKN044 05/03 Q0995 15.0mph 5°C 3°C 3.7°C
09/01/23 04:20 EGGD 090420Z AUTO 26013KT 9999 SCT025/// BKN039/// //////TCU 05/03 Q0995 15.0mph 5°C 3°C 3.7°C
09/01/23 03:50 EGGD 090350Z AUTO 26013KT 9999 FEW019 05/03 Q0994 15.0mph 5°C 3°C 3.7°C
09/01/23 03:20 EGGD 090320Z AUTO 26014KT 9999 BKN019/// //////TCU 06/04 Q0994 16.1mph 6°C 4°C 5.0°C
09/01/23 02:50 EGGD 090250Z AUTO 26015KT 9999 SCT017 06/04 Q0993 17.3mph 6°C 4°C 5.0°C
09/01/23 02:20 EGGD 090220Z AUTO 26017KT 9999 BKN015 BKN021 06/04 Q0993 19.6mph 6°C 4°C 5.0°C
09/01/23 01:20 EGGD 090120Z AUTO 26013KT 9999 BKN015 OVC019 06/05 Q0992 15.0mph 6°C 5°C 5.3°C
09/01/23 00:50 EGGD 090050Z AUTO 26013KT 9999 BKN015 BKN022 06/05 Q0991 15.0mph 6°C 5°C 5.3°C
09/01/23 00:20 EGGD 090020Z AUTO 26012KT 9999 FEW013 05/04 Q0991 13.8mph 5°C 4°C 4.0°C
08/01/23 23:50 EGGD 082350Z AUTO 26012KT 9999 FEW012/// SCT018/// //////TCU 05/04 Q0990 13.8mph 5°C 4°C 4.0°C
08/01/23 23:20 EGGD 082320Z AUTO 26013KT 9999 SCT017 BKN024 05/04 Q0990 15.0mph 5°C 4°C 4.0°C
08/01/23 22:50 EGGD 082250Z AUTO 27013KT 9999 BKN017/// BKN030/// //////TCU 05/04 Q0989 15.0mph 5°C 4°C 4.0°C
08/01/23 22:20 EGGD 082220Z AUTO 28019KT 9999 -RA SCT006/// SCT015/// BKN029/// //////TCU 05/04 Q0988 -RA 21.9mph 5°C 4°C 4.0°C
08/01/23 21:50 EGGD 082150Z AUTO 25011KT 9999 OVC004/// //////TCU 06/05 Q0987 RERA 12.7mph 6°C 5°C 5.3°C
08/01/23 20:20 EGGD 082020Z AUTO 19009G19KT 170V250 9999 SCT019 BKN045 06/04 Q0986 10.4mph 21.9mph 6°C 4°C 5.0°C
08/01/23 19:20 EGGD 081920Z AUTO 18011KT 9999 BKN024 06/03 Q0987 12.7mph 6°C 3°C 4.7°C
08/01/23 18:50 EGGD 081850Z AUTO 19010KT 170V240 9999 BKN029 BKN045 05/03 Q0987 11.5mph 5°C 3°C 3.7°C
08/01/23 18:20 EGGD 081820Z AUTO 19010KT 170V240 9999 NCD 05/02 Q0987 11.5mph 5°C 2°C 3.4°C
08/01/23 17:50 EGGD 081750Z AUTO 19010KT 9999 NCD 05/03 Q0988 11.5mph 5°C 3°C 3.7°C
08/01/23 17:20 EGGD 081720Z AUTO 19010KT 180V260 9999 FEW034 05/03 Q0988 11.5mph 5°C 3°C 3.7°C
08/01/23 16:50 EGGD 081650Z AUTO 19009KT 180V250 9999 FEW049 05/03 Q0988 10.4mph 5°C 3°C 3.7°C
08/01/23 16:20 EGGD 081620Z 20007KT 180V260 9999 FEW024 05/03 Q0988 8.1mph 5°C 3°C 3.7°C
08/01/23 15:20 EGGD 081520Z AUTO 21008KT 180V260 9999 FEW025/// SCT035/// //////TCU 04/03 Q0988 RESHRA 9.2mph 4°C 3°C 2.7°C
08/01/23 14:50 EGGD 081450Z 25021KT 6000 SHRA FEW012 SCT016CB BKN036 04/03 Q0988 RESHRA SHRA 24.2mph 4°C 3°C 2.7°C
08/01/23 13:50 EGGD 081350Z 23012KT 180V260 9999 -SHRA FEW015CB SCT022 BKN043 07/04 Q0988 -SHRA 13.8mph 7°C 4°C 6.0°C
08/01/23 13:20 EGGD 081320Z AUTO 20011KT 180V250 9999 BKN017 07/04 Q0988 12.7mph 7°C 4°C 6.0°C
08/01/23 12:50 EGGD 081250Z AUTO 19009KT 180V240 9999 BKN017 BKN048 07/05 Q0988 10.4mph 7°C 5°C 6.3°C
08/01/23 11:50 EGGD 081150Z AUTO 19010KT 170V250 9999 //////TCU 06/04 Q0988 11.5mph 6°C 4°C 5.0°C
08/01/23 11:20 EGGD 081120Z AUTO 19014KT 9999 FEW027/// SCT049/// //////CB 06/04 Q0989 16.1mph 6°C 4°C 5.0°C
08/01/23 10:50 EGGD 081050Z AUTO 19015KT 9999 BKN017/// BKN040/// //////CB 07/05 Q0989 17.3mph 7°C 5°C 6.3°C
08/01/23 10:20 EGGD 081020Z AUTO 19014KT 9999 -RA BKN017/// BKN027/// //////TCU 07/05 Q0990 -RA 16.1mph 7°C 5°C 6.3°C
08/01/23 09:50 EGGD 080950Z AUTO 18017KT 9999 -RA FEW029 SCT049 08/05 Q0990 -RA 19.6mph 8°C 5°C 7.3°C
08/01/23 09:20 EGGD 080920Z AUTO 18014KT 9999 FEW023/// //////TCU 07/05 Q0990 16.1mph 7°C 5°C 6.3°C
08/01/23 08:50 EGGD 080850Z AUTO 18011KT 9999 FEW033/// //////TCU 07/05 Q0990 12.7mph 7°C 5°C 6.3°C
08/01/23 08:20 EGGD 080820Z AUTO 18012KT 9999 NCD 07/04 Q0991 13.8mph 7°C 4°C 6.0°C
08/01/23 07:50 EGGD 080750Z AUTO 18012KT 9999 NCD 07/04 Q0991 13.8mph 7°C 4°C 6.0°C
08/01/23 07:20 EGGD 080720Z AUTO 19009KT 170V230 9999 NCD 06/04 Q0992 10.4mph 6°C 4°C 5.0°C
08/01/23 06:50 EGGD 080650Z AUTO 19009KT 170V250 9999 NCD 06/04 Q0992 10.4mph 6°C 4°C 5.0°C
08/01/23 06:20 EGGD 080620Z AUTO 19010KT 170V240 9999 FEW049 06/03 Q0992 11.5mph 6°C 3°C 4.7°C
08/01/23 05:50 EGGD 080550Z AUTO 19009KT 180V250 9999 SCT034 06/03 Q0993 10.4mph 6°C 3°C 4.7°C
08/01/23 04:50 EGGD 080450Z AUTO 20010KT 180V260 9999 -RA SCT020 BKN025 BKN030 06/04 Q0993 -RA 11.5mph 6°C 4°C 5.0°C
08/01/23 04:20 EGGD 080420Z AUTO 22013KT 180V250 9999 BKN022/// //////TCU 06/03 Q0993 15.0mph 6°C 3°C 4.7°C
08/01/23 03:50 EGGD 080350Z AUTO 20012KT 180V260 9999 FEW042/// //////TCU 06/03 Q0993 13.8mph 6°C 3°C 4.7°C
08/01/23 03:20 EGGD 080320Z AUTO 19013KT 180V240 9999 FEW028 07/03 Q0993 15.0mph 7°C 3°C 5.7°C
08/01/23 02:50 EGGD 080250Z AUTO 20012KT 180V250 9999 NCD 07/04 Q0993 13.8mph 7°C 4°C 6.0°C
08/01/23 02:20 EGGD 080220Z AUTO 20012KT 180V250 9999 FEW026 SCT047 07/04 Q0993 13.8mph 7°C 4°C 6.0°C
08/01/23 01:50 EGGD 080150Z AUTO 20012KT 180V250 9999 BKN021 BKN035 07/04 Q0994 13.8mph 7°C 4°C 6.0°C
08/01/23 00:50 EGGD 080050Z AUTO 19011KT 180V250 9999 FEW017/// SCT032/// //////CB 07/05 Q0994 12.7mph 7°C 5°C 6.3°C
08/01/23 00:20 EGGD 080020Z AUTO 19010KT 160V240 9999 SCT030 BKN037 BKN049 07/05 Q0994 11.5mph 7°C 5°C 6.3°C
07/01/23 23:20 EGGD 072320Z AUTO 22012KT 180V250 9999 BKN025 BKN031 08/04 Q0994 13.8mph 8°C 4°C 7.0°C
07/01/23 22:50 EGGD 072250Z AUTO 21016KT 180V260 9999 NCD 08/04 Q0994 18.4mph 8°C 4°C 7.0°C
07/01/23 22:20 EGGD 072220Z AUTO 20013KT 180V250 9999 BKN029 08/05 Q0994 15.0mph 8°C 5°C 7.3°C
07/01/23 21:50 EGGD 072150Z AUTO 19013KT 9999 BKN030 07/05 Q0994 15.0mph 7°C 5°C 6.3°C
07/01/23 21:20 EGGD 072120Z AUTO 19014KT 9999 SCT028 BKN034 07/04 Q0994 16.1mph 7°C 4°C 6.0°C
07/01/23 20:50 EGGD 072050Z AUTO 19014KT 180V240 9999 BKN032 07/04 Q0995 16.1mph 7°C 4°C 6.0°C
07/01/23 20:20 EGGD 072020Z AUTO 19014KT 9999 FEW031 BKN037 07/04 Q0995 16.1mph 7°C 4°C 6.0°C
07/01/23 19:50 EGGD 071950Z AUTO 19012KT 180V250 9999 FEW041 06/04 Q0995 13.8mph 6°C 4°C 5.0°C
07/01/23 19:20 EGGD 071920Z AUTO 19011KT 9999 FEW044 06/04 Q0994 12.7mph 6°C 4°C 5.0°C
07/01/23 18:20 EGGD 071820Z AUTO 19012KT 180V250 9999 NCD 07/03 Q0994 13.8mph 7°C 3°C 5.7°C
07/01/23 17:50 EGGD 071750Z AUTO 21012KT 180V250 9999 SCT025 07/03 Q0994 13.8mph 7°C 3°C 5.7°C
07/01/23 17:20 EGGD 071720Z AUTO 22014KT 180V260 9999 NCD 07/04 Q0994 16.1mph 7°C 4°C 6.0°C
07/01/23 16:50 EGGD 071650Z AUTO 24016G27KT 190V260 9999 BKN024 OVC030 08/04 Q0994 18.4mph 31.1mph 8°C 4°C 7.0°C
07/01/23 16:20 EGGD 071620Z AUTO 21012KT 180V250 9999 SCT033/// //////TCU 08/06 Q0993 13.8mph 8°C 6°C 7.6°C
07/01/23 15:50 EGGD 071550Z 23012KT 180V260 9999 5000E VCSH FEW007 SCT015CB SCT040 07/06 Q0993 RESHRA VCSH 13.8mph 7°C 6°C 6.6°C
07/01/23 15:20 EGGD 071520Z AUTO 19013KT 9999 SCT023/// BKN027/// BKN040/// //////CB 08/07 Q0992 15.0mph 8°C 7°C 8.0°C
07/01/23 14:20 EGGD 071420Z 18010KT 160V240 9999 -SHRA SCT023CB BKN032 10/07 Q0993 -SHRA 11.5mph 10°C 7°C 10.0°C
07/01/23 13:50 EGGD 071350Z AUTO 19012KT 170V230 9999 SCT026 BKN033 BKN043 10/07 Q0993 13.8mph 10°C 7°C 10.0°C
07/01/23 12:50 EGGD 071250Z AUTO 19013G23KT 170V250 9999 SCT017 SCT021 BKN027 10/08 Q0994 15.0mph 26.5mph 10°C 8°C 10.4°C
07/01/23 12:20 EGGD 071220Z AUTO 19011KT 9999 FEW017 11/08 Q0994 12.7mph 11°C 8°C 11.4°C
07/01/23 11:20 EGGD 071120Z AUTO 19010KT 170V250 9999 BKN012/// BKN047/// //////TCU 10/09 Q0995 11.5mph 10°C 9°C 10.8°C
07/01/23 10:50 EGGD 071050Z AUTO 19011KT 9999 SCT005/// BKN010/// BKN047/// //////TCU 10/10 Q0995 12.7mph 10°C 10°C 11.3°C
07/01/23 10:20 EGGD 071020Z AUTO 19013KT 9999 SCT006/// BKN010/// BKN049/// //////TCU 10/09 Q0995 15.0mph 10°C 9°C 10.8°C
07/01/23 09:50 EGGD 070950Z 19015KT 9000 -RA BKN004CB 10/10 Q0995 RERA -RA 17.3mph 10°C 10°C 11.3°C
07/01/23 09:20 EGGD 070920Z AUTO 18020G35KT 7000 -RA OVC004/// //////CB 10/10 Q0995 RERA -RA 23.0mph 40.3mph 10°C 10°C 11.3°C
07/01/23 08:50 EGGD 070850Z AUTO 18019G29KT 2100 +RA OVC006/// //////TCU 10/09 Q0995 +RA 21.9mph 33.4mph 10°C 9°C 10.8°C
07/01/23 08:20 EGGD 070820Z AUTO 18018G33KT 2400 +RA OVC005/// //////TCU 10/09 Q0995 REDZ +RA 20.7mph 38.0mph 10°C 9°C 10.8°C
07/01/23 07:50 EGGD 070750Z AUTO 18021G32KT 9999 OVC007 10/09 Q0995 24.2mph 36.8mph 10°C 9°C 10.8°C
07/01/23 07:20 EGGD 070720Z AUTO 18023KT 9000 -RA OVC006 10/09 Q0996 RERA REDZ -RA 26.5mph 10°C 9°C 10.8°C
07/01/23 06:50 EGGD 070650Z AUTO 18019G29KT 9999 -RA OVC008 10/09 Q0996 -RA 21.9mph 33.4mph 10°C 9°C 10.8°C
07/01/23 06:20 EGGD 070620Z AUTO 18019G37KT 6000 -RA OVC009 10/09 Q0997 -RA 21.9mph 42.6mph 10°C 9°C 10.8°C
07/01/23 05:50 EGGD 070550Z AUTO 17020KT 9999 -RA BKN010 OVC014 10/09 Q0997 -RA 23.0mph 10°C 9°C 10.8°C
07/01/23 05:20 EGGD 070520Z AUTO 17023KT 9999 -RA BKN009 OVC012 10/09 Q0997 -RA 26.5mph 10°C 9°C 10.8°C
07/01/23 04:50 EGGD 070450Z AUTO 17022G39KT 9999 -RA BKN009 OVC016 10/09 Q0998 -RA 25.3mph 44.9mph 10°C 9°C 10.8°C